createdAt,value
2022-08-19T00:00:38.357Z,23.02
2022-08-19T00:05:41.462Z,23.00
2022-08-19T00:10:44.282Z,22.98
2022-08-19T00:15:48.451Z,22.99
2022-08-19T00:20:51.247Z,23.01
2022-08-19T00:25:54.302Z,23.01
2022-08-19T00:30:58.532Z,22.97
2022-08-19T00:36:01.633Z,22.88
2022-08-19T00:41:04.573Z,22.78
2022-08-19T00:46:09.351Z,22.76
2022-08-19T00:51:12.239Z,22.74
2022-08-19T00:56:16.413Z,22.67
2022-08-19T01:01:20.640Z,22.55
2022-08-19T01:06:23.843Z,22.50
2022-08-19T01:11:27.216Z,22.40
2022-08-19T01:16:32.623Z,22.31
2022-08-19T01:21:43.815Z,22.25
2022-08-19T01:26:49.736Z,22.20
2022-08-19T01:31:54.308Z,22.02
2022-08-19T01:36:57.156Z,21.98
2022-08-19T01:42:04.085Z,21.92
2022-08-19T01:47:07.321Z,21.92
2022-08-19T01:52:10.238Z,21.92
2022-08-19T01:57:16.769Z,21.75
2022-08-19T02:02:19.670Z,21.65
2022-08-19T02:07:22.721Z,21.55
2022-08-19T02:12:26.888Z,21.66
2022-08-19T02:17:30.092Z,21.77
2022-08-19T02:22:32.996Z,21.85
2022-08-19T02:27:37.181Z,21.89
2022-08-19T02:32:44.617Z,21.83
2022-08-19T02:38:05.776Z,21.73
2022-08-19T02:43:11.735Z,21.43
2022-08-19T02:48:21.273Z,21.33
2022-08-19T02:53:28.079Z,21.31
2022-08-19T02:58:32.236Z,21.12
2022-08-19T03:03:35.668Z,21.01
2022-08-19T03:08:39.495Z,20.91
2022-08-19T03:13:44.119Z,20.92
2022-08-19T03:18:47.128Z,21.05
2022-08-19T03:23:50.429Z,21.14
2022-08-19T03:28:58.106Z,21.17
2022-08-19T03:34:01.719Z,21.28
2022-08-19T03:39:06.707Z,21.31
2022-08-19T03:44:16.623Z,21.36
2022-08-19T03:49:27.089Z,21.37
2022-08-19T03:54:31.348Z,21.36
2022-08-19T03:59:37.388Z,21.36
2022-08-19T04:04:41.643Z,21.34
2022-08-19T04:09:44.644Z,21.28
2022-08-19T04:14:49.146Z,21.30
2022-08-19T04:19:51.996Z,21.32
2022-08-19T04:24:54.777Z,21.30
2022-08-19T04:29:59.251Z,21.40
2022-08-19T04:35:18.510Z,21.52
2022-08-19T04:40:44.943Z,21.59
2022-08-19T04:45:49.413Z,21.58
2022-08-19T04:50:58.502Z,21.57
2022-08-19T04:56:05.859Z,21.53
2022-08-19T05:01:11.321Z,21.56
2022-08-19T05:06:16.913Z,21.53
2022-08-19T05:11:26.297Z,21.67
2022-08-19T05:16:30.748Z,21.77
2022-08-19T05:21:52.142Z,21.83
2022-08-19T05:26:58.898Z,21.83
2022-08-19T05:32:04.213Z,21.74
2022-08-19T05:37:08.553Z,21.52
2022-08-19T05:42:13.277Z,21.42
2022-08-19T05:47:20.505Z,21.45
2022-08-19T05:52:25.402Z,21.49
2022-08-19T05:57:29.899Z,21.46
2022-08-19T06:02:34.263Z,21.42
2022-08-19T06:07:37.359Z,21.35
2022-08-19T06:12:40.829Z,21.28
2022-08-19T06:17:46.274Z,21.28
2022-08-19T06:22:52.464Z,21.25
2022-08-19T06:28:13.971Z,21.24
2022-08-19T06:33:19.097Z,21.19
2022-08-19T06:38:24.439Z,21.08
2022-08-19T06:43:29.075Z,21.13
2022-08-19T06:48:35.580Z,21.18
2022-08-19T06:53:41.911Z,21.29
2022-08-19T06:58:45.258Z,21.35
2022-08-19T07:03:49.409Z,21.40
2022-08-19T07:08:53.279Z,21.46
2022-08-19T07:13:59.128Z,21.55
2022-08-19T07:19:11.836Z,21.53
2022-08-19T07:24:19.537Z,21.50
2022-08-19T07:29:25.793Z,21.53
2022-08-19T07:34:35.475Z,21.68
2022-08-19T07:39:39.623Z,21.86
2022-08-19T07:44:47.856Z,22.02
2022-08-19T07:49:55.030Z,22.10
2022-08-19T07:54:58.242Z,22.18
2022-08-19T08:00:01.230Z,22.25
2022-08-19T08:05:23.652Z,22.30
2022-08-19T08:10:26.642Z,22.15
2022-08-19T08:15:29.576Z,22.09
2022-08-19T08:20:33.856Z,22.19
2022-08-19T08:25:38.370Z,22.22
2022-08-19T08:30:45.111Z,22.28
2022-08-19T08:35:50.377Z,22.37
2022-08-19T08:40:59.911Z,22.32
2022-08-19T08:46:07.617Z,22.29
2022-08-19T08:51:20.276Z,22.35
2022-08-19T08:56:23.549Z,22.37
2022-08-19T09:01:30.164Z,22.20
2022-08-19T09:06:49.047Z,22.15
2022-08-19T09:12:01.418Z,22.10
2022-08-19T09:17:09.077Z,22.02
2022-08-19T09:22:13.289Z,22.14
2022-08-19T09:27:42.244Z,22.17
2022-08-19T09:32:46.507Z,22.27
2022-08-19T09:37:51.461Z,22.31
2022-08-19T09:43:01.613Z,22.28
2022-08-19T09:48:04.897Z,22.39
2022-08-19T09:53:09.203Z,22.43
2022-08-19T09:58:12.308Z,22.23
2022-08-19T10:03:15.108Z,22.07
2022-08-19T10:08:21.409Z,22.03
2022-08-19T10:13:31.746Z,22.09
2022-08-19T10:18:36.049Z,22.05
2022-08-19T10:23:45.461Z,22.13
2022-08-19T10:28:48.597Z,22.09
2022-08-19T10:33:58.135Z,22.02
2022-08-19T10:39:10.456Z,21.94
2022-08-19T10:44:14.800Z,21.94
2022-08-19T10:49:19.999Z,21.93
2022-08-19T10:54:32.168Z,21.99
2022-08-19T10:59:37.022Z,22.05
2022-08-19T11:04:40.314Z,22.15
2022-08-19T11:09:47.484Z,22.15
2022-08-19T11:14:50.881Z,22.22
2022-08-19T11:19:53.712Z,22.22
2022-08-19T11:24:57.985Z,22.13
2022-08-19T11:30:01.359Z,22.11
2022-08-19T11:35:04.655Z,22.14
2022-08-19T11:40:10.642Z,22.03
2022-08-19T11:45:14.900Z,21.90
2022-08-19T11:50:18.914Z,21.83
2022-08-19T11:55:23.947Z,21.77
2022-08-19T12:00:27.555Z,21.71
2022-08-19T12:05:30.798Z,21.72
2022-08-19T12:10:39.363Z,21.77
2022-08-19T12:15:42.738Z,21.79
2022-08-19T12:20:46.870Z,21.84
2022-08-19T12:25:52.567Z,21.85
2022-08-19T12:30:55.410Z,21.82
2022-08-19T12:36:03.243Z,21.68
2022-08-19T12:41:08.543Z,21.58
2022-08-19T12:46:11.697Z,21.37
2022-08-19T12:51:16.566Z,21.28
2022-08-19T12:56:23.202Z,21.25
2022-08-19T13:01:26.302Z,21.29
2022-08-19T13:06:29.222Z,21.29
2022-08-19T13:11:35.319Z,21.33
2022-08-19T13:16:38.647Z,21.35
2022-08-19T13:21:41.487Z,21.37
2022-08-19T13:26:47.024Z,21.29
2022-08-19T13:32:07.211Z,21.23
2022-08-19T13:37:10.070Z,21.17
2022-08-19T13:42:14.894Z,21.13
2022-08-19T13:47:17.922Z,21.02
2022-08-19T13:52:20.684Z,20.99
2022-08-19T13:57:24.970Z,21.01
2022-08-19T14:02:28.225Z,20.98
2022-08-19T14:07:31.004Z,21.02
2022-08-19T14:12:35.328Z,21.00
2022-08-19T14:17:40.011Z,21.02
2022-08-19T14:22:44.082Z,21.02
2022-08-19T14:27:49.148Z,21.13
2022-08-19T14:32:52.441Z,21.23
2022-08-19T14:37:56.486Z,21.29
2022-08-19T14:43:05.228Z,21.30
2022-08-19T14:48:18.943Z,21.31
2022-08-19T14:53:22.762Z,21.17
2022-08-19T14:58:28.902Z,21.19
2022-08-19T15:03:33.654Z,21.21
2022-08-19T15:08:39.957Z,21.15
2022-08-19T15:13:44.857Z,21.15
2022-08-19T15:18:50.732Z,21.13
2022-08-19T15:23:54.114Z,21.19
2022-08-19T15:28:58.468Z,21.20
2022-08-19T15:34:01.239Z,21.17
2022-08-19T15:39:06.366Z,21.20
2022-08-19T15:44:13.200Z,21.20
2022-08-19T15:49:18.339Z,21.24
2022-08-19T15:54:22.785Z,21.24
2022-08-19T15:59:47.081Z,21.28
2022-08-19T16:05:07.979Z,21.24
2022-08-19T16:10:27.409Z,21.24
2022-08-19T16:15:32.245Z,21.34
2022-08-19T16:20:35.897Z,21.39
2022-08-19T16:25:39.376Z,21.40
2022-08-19T16:30:48.571Z,21.41
2022-08-19T16:36:00.370Z,21.43
2022-08-19T16:41:10.124Z,21.39
2022-08-19T16:46:14.415Z,21.44
2022-08-19T16:51:22.831Z,21.50
2022-08-19T16:56:26.217Z,21.63
2022-08-19T17:01:30.537Z,21.69
2022-08-19T17:06:36.462Z,21.66
2022-08-19T17:11:39.311Z,21.64
2022-08-19T17:16:43.483Z,21.68
2022-08-19T17:21:46.406Z,21.74
2022-08-19T17:26:49.175Z,21.78
2022-08-19T17:31:53.322Z,21.76
2022-08-19T17:36:57.243Z,21.75
2022-08-19T17:42:02.582Z,21.78
2022-08-19T17:47:07.096Z,21.80
2022-08-19T17:52:11.068Z,21.83
2022-08-19T17:57:14.052Z,21.86
2022-08-19T18:02:21.827Z,21.88
2022-08-19T18:07:25.230Z,21.91
2022-08-19T18:12:28.048Z,21.94
2022-08-19T18:17:33.279Z,21.92
2022-08-19T18:22:39.676Z,21.89
2022-08-19T18:27:43.356Z,21.87
2022-08-19T18:32:52.405Z,21.82
2022-08-19T18:37:55.332Z,21.78
2022-08-19T18:43:17.811Z,21.75
2022-08-19T18:48:39.186Z,21.70
2022-08-19T18:53:44.121Z,21.68
2022-08-19T18:58:47.546Z,21.66
2022-08-19T19:03:53.976Z,21.65
2022-08-19T19:08:57.059Z,21.61
2022-08-19T19:14:02.008Z,21.58
2022-08-19T19:19:07.522Z,21.58
2022-08-19T19:24:13.928Z,21.57
2022-08-19T19:29:17.926Z,21.58
2022-08-19T19:34:29.630Z,21.50
2022-08-19T19:39:45.747Z,21.38
2022-08-19T19:44:51.331Z,21.26
2022-08-19T19:50:15.127Z,21.21
2022-08-19T19:55:19.417Z,21.17
2022-08-19T20:00:23.094Z,21.15
2022-08-19T20:05:27.413Z,21.14
2022-08-19T20:10:32.332Z,21.16
2022-08-19T20:15:40.370Z,21.17
2022-08-19T20:20:50.208Z,21.15
2022-08-19T20:25:54.387Z,21.16
2022-08-19T20:30:57.176Z,21.21
2022-08-19T20:36:05.287Z,21.26
2022-08-19T20:41:10.549Z,21.27
2022-08-19T20:46:13.600Z,21.26
2022-08-19T20:51:18.184Z,21.23
2022-08-19T20:56:21.065Z,21.18
2022-08-19T21:01:24.402Z,21.14
2022-08-19T21:06:29.744Z,21.15
2022-08-19T21:11:32.661Z,21.13
2022-08-19T21:16:35.529Z,21.15
2022-08-19T21:21:39.838Z,21.19
2022-08-19T21:26:42.682Z,21.24
2022-08-19T21:31:45.728Z,21.26
2022-08-19T21:36:49.961Z,21.25
2022-08-19T21:41:53.046Z,21.25
2022-08-19T21:46:56.845Z,21.28
2022-08-19T21:52:01.951Z,21.29
2022-08-19T21:57:05.252Z,21.30
2022-08-19T22:02:22.018Z,21.32
2022-08-19T22:07:26.381Z,21.27
2022-08-19T22:12:33.174Z,21.25
2022-08-19T22:17:36.284Z,21.22
2022-08-19T22:22:47.226Z,21.19
2022-08-19T22:27:50.493Z,21.14
2022-08-19T22:33:00.018Z,21.08
2022-08-19T22:38:06.376Z,21.03
2022-08-19T22:43:14.415Z,20.96
2022-08-19T22:48:19.730Z,20.91
2022-08-19T22:53:23.884Z,20.81
2022-08-19T22:58:28.137Z,20.75
2022-08-19T23:03:31.169Z,20.74
2022-08-19T23:08:37.342Z,20.73
2022-08-19T23:13:41.251Z,20.73
2022-08-19T23:18:45.367Z,20.65
2022-08-19T23:23:49.512Z,20.57
2022-08-19T23:29:09.703Z,20.53
2022-08-19T23:34:12.909Z,20.52
2022-08-19T23:39:17.103Z,20.53
2022-08-19T23:44:19.913Z,20.47
2022-08-19T23:49:25.441Z,20.45
2022-08-19T23:54:42.696Z,20.46
2022-08-19T23:59:46.311Z,20.47
